createdAt,value
2019-03-24T00:01:26.181Z,100.00
2019-03-24T00:03:56.978Z,100.00
2019-03-24T00:06:27.733Z,100.00
2019-03-24T00:08:58.474Z,100.00
2019-03-24T00:11:29.646Z,100.00
2019-03-24T00:14:00.375Z,100.00
2019-03-24T00:16:31.204Z,100.00
2019-03-24T00:19:01.969Z,100.00
2019-03-24T00:21:32.748Z,100.00
2019-03-24T00:24:03.481Z,100.00
2019-03-24T00:26:34.194Z,100.00
2019-03-24T00:29:05.078Z,100.00
2019-03-24T00:31:35.851Z,100.00
2019-03-24T00:34:06.774Z,100.00
2019-03-24T00:36:37.503Z,100.00
2019-03-24T00:39:08.999Z,100.00
2019-03-24T00:41:39.785Z,100.00
2019-03-24T00:44:10.632Z,100.00
2019-03-24T00:46:41.345Z,100.00
2019-03-24T00:49:12.462Z,100.00
2019-03-24T00:51:43.341Z,100.00
2019-03-24T00:54:14.143Z,100.00
2019-03-24T00:56:44.921Z,100.00
2019-03-24T00:59:16.103Z,100.00
2019-03-24T01:01:46.823Z,100.00
2019-03-24T01:04:17.664Z,100.00
2019-03-24T01:06:48.743Z,100.00
2019-03-24T01:09:19.640Z,100.00
2019-03-24T01:11:50.447Z,100.00
2019-03-24T01:14:21.244Z,100.00
2019-03-24T01:16:52.050Z,100.00
2019-03-24T01:19:22.925Z,100.00
2019-03-24T01:21:53.744Z,100.00
2019-03-24T01:24:24.490Z,100.00
2019-03-24T01:26:55.260Z,100.00
2019-03-24T01:29:26.128Z,100.00
2019-03-24T01:31:56.858Z,100.00
2019-03-24T01:34:27.677Z,100.00
2019-03-24T01:36:58.556Z,100.00
2019-03-24T01:39:29.313Z,100.00
2019-03-24T01:42:00.469Z,100.00
2019-03-24T01:44:31.243Z,100.00
2019-03-24T01:47:02.003Z,100.00
2019-03-24T01:49:32.717Z,100.00
2019-03-24T01:52:03.568Z,100.00
2019-03-24T01:54:34.306Z,100.00
2019-03-24T01:57:05.123Z,100.00
2019-03-24T01:59:35.853Z,100.00
2019-03-24T02:02:07.880Z,100.00
2019-03-24T02:04:38.608Z,100.00
2019-03-24T02:07:09.419Z,100.00
2019-03-24T02:09:40.399Z,100.00
2019-03-24T02:12:11.261Z,100.00
2019-03-24T02:14:42.036Z,100.00
2019-03-24T02:17:12.839Z,100.00
2019-03-24T02:19:43.655Z,100.00
2019-03-24T02:22:14.514Z,100.00
2019-03-24T02:24:45.263Z,100.00
2019-03-24T02:27:16.154Z,100.00
2019-03-24T02:29:46.882Z,100.00
2019-03-24T02:32:17.846Z,100.00
2019-03-24T02:34:48.830Z,100.00
2019-03-24T02:37:19.616Z,100.00
2019-03-24T02:39:50.328Z,100.00
2019-03-24T02:42:21.072Z,100.00
2019-03-24T02:44:52.080Z,100.00
2019-03-24T02:47:22.847Z,100.00
2019-03-24T02:49:53.553Z,100.00
2019-03-24T02:52:24.269Z,100.00
2019-03-24T02:54:54.998Z,100.00
2019-03-24T02:57:25.817Z,100.00
2019-03-24T02:59:56.540Z,100.00
2019-03-24T03:02:27.768Z,100.00
2019-03-24T03:04:58.598Z,100.00
2019-03-24T03:07:29.416Z,100.00
2019-03-24T03:10:00.461Z,100.00
2019-03-24T03:12:31.245Z,100.00
2019-03-24T03:15:01.984Z,100.00
2019-03-24T03:17:32.839Z,100.00
2019-03-24T03:20:04.184Z,100.00
2019-03-24T03:22:34.924Z,100.00
2019-03-24T03:25:06.476Z,100.00
2019-03-24T03:27:37.275Z,100.00
2019-03-24T03:30:09.809Z,100.00
2019-03-24T03:32:40.690Z,100.00
2019-03-24T03:35:11.731Z,100.00
2019-03-24T03:37:42.987Z,100.00
2019-03-24T03:40:14.037Z,100.00
2019-03-24T03:42:44.769Z,100.00
2019-03-24T03:45:23.833Z,100.00
2019-03-24T03:47:54.604Z,100.00
2019-03-24T03:50:25.420Z,100.00
2019-03-24T03:52:56.335Z,100.00
2019-03-24T03:55:27.089Z,100.00
2019-03-24T03:57:57.859Z,100.00
2019-03-24T04:00:35.126Z,100.00
2019-03-24T04:03:06.907Z,100.00
2019-03-24T04:05:37.913Z,100.00
2019-03-24T04:08:09.195Z,100.00
2019-03-24T04:10:39.997Z,100.00
2019-03-24T04:13:10.795Z,100.00
2019-03-24T04:15:41.538Z,100.00
2019-03-24T04:18:12.406Z,100.00
2019-03-24T04:20:43.228Z,100.00
2019-03-24T04:23:14.066Z,100.00
2019-03-24T04:25:44.862Z,100.00
2019-03-24T04:28:15.626Z,100.00
2019-03-24T04:30:46.334Z,100.00
2019-03-24T04:33:17.108Z,100.00
2019-03-24T04:35:47.889Z,100.00
2019-03-24T04:38:19.142Z,100.00
2019-03-24T04:40:50.121Z,100.00
2019-03-24T04:43:20.879Z,100.00
2019-03-24T04:45:51.620Z,100.00
2019-03-24T04:48:22.368Z,100.00
2019-03-24T04:50:53.237Z,100.00
2019-03-24T04:53:24.880Z,100.00
2019-03-24T04:55:56.369Z,100.00
2019-03-24T04:58:27.118Z,100.00
2019-03-24T05:00:58.057Z,100.00
2019-03-24T05:03:28.769Z,100.00
2019-03-24T05:05:59.478Z,100.00
2019-03-24T05:08:31.260Z,100.00
2019-03-24T05:11:02.800Z,100.00
2019-03-24T05:13:33.543Z,100.00
2019-03-24T05:16:05.437Z,100.00
2019-03-24T05:18:36.184Z,100.00
2019-03-24T05:21:07.000Z,100.00
2019-03-24T05:23:37.741Z,100.00
2019-03-24T05:26:09.065Z,100.00
2019-03-24T05:28:39.762Z,100.00
2019-03-24T05:31:10.562Z,100.00
2019-03-24T05:33:41.304Z,100.00
2019-03-24T05:36:12.653Z,100.00
2019-03-24T05:38:43.367Z,100.00
2019-03-24T05:41:15.271Z,100.00
2019-03-24T05:43:47.029Z,100.00
2019-03-24T05:46:18.254Z,100.00
2019-03-24T05:48:48.992Z,100.00
2019-03-24T05:51:19.712Z,100.00
2019-03-24T05:53:50.462Z,100.00
2019-03-24T05:56:21.190Z,100.00
2019-03-24T05:58:52.092Z,100.00
2019-03-24T06:01:23.156Z,100.00
2019-03-24T06:03:54.042Z,100.00
2019-03-24T06:06:24.968Z,100.00
2019-03-24T06:08:55.717Z,100.00
2019-03-24T06:11:26.514Z,100.00
2019-03-24T06:13:57.506Z,100.00
2019-03-24T06:16:28.798Z,100.00
2019-03-24T06:18:59.581Z,100.00
2019-03-24T06:21:30.321Z,100.00
2019-03-24T06:24:01.423Z,100.00
2019-03-24T06:26:32.793Z,100.00
2019-03-24T06:29:03.692Z,100.00
2019-03-24T06:31:34.464Z,100.00
2019-03-24T06:34:05.414Z,100.00
2019-03-24T06:36:36.228Z,100.00
2019-03-24T06:39:08.635Z,100.00
2019-03-24T06:41:39.446Z,100.00
2019-03-24T06:44:10.438Z,100.00
2019-03-24T06:46:41.166Z,100.00
2019-03-24T06:49:11.919Z,100.00
2019-03-24T06:51:43.259Z,98.00
2019-03-24T06:54:14.059Z,89.27
2019-03-24T06:56:44.792Z,89.58
2019-03-24T06:59:15.519Z,89.13
2019-03-24T07:01:46.310Z,89.29
2019-03-24T07:04:16.983Z,84.88
2019-03-24T07:06:47.694Z,82.74
2019-03-24T07:09:18.436Z,79.55
2019-03-24T07:11:49.303Z,76.68
2019-03-24T07:14:20.113Z,72.86
2019-03-24T07:16:50.833Z,71.52
2019-03-24T07:19:21.623Z,68.36
2019-03-24T07:21:52.408Z,67.88
2019-03-24T07:24:23.422Z,65.63
2019-03-24T07:26:54.155Z,62.88
2019-03-24T07:29:24.909Z,62.80
2019-03-24T07:31:55.768Z,65.41
2019-03-24T07:34:26.513Z,63.23
2019-03-24T07:36:57.256Z,60.83
2019-03-24T07:39:28.010Z,58.48
2019-03-24T07:41:59.102Z,59.39
2019-03-24T07:44:29.917Z,55.08
2019-03-24T07:47:02.385Z,53.13
2019-03-24T07:49:33.110Z,52.63
2019-03-24T07:52:03.828Z,50.32
2019-03-24T07:54:34.641Z,49.40
2019-03-24T07:57:05.500Z,46.37
2019-03-24T07:59:36.272Z,46.73
2019-03-24T08:02:07.183Z,46.03
2019-03-24T08:04:37.945Z,45.11
2019-03-24T08:07:08.680Z,45.73
2019-03-24T08:09:39.410Z,45.30
2019-03-24T08:12:10.179Z,46.87
2019-03-24T08:14:40.989Z,45.56
2019-03-24T08:17:11.721Z,44.25
2019-03-24T08:19:42.534Z,42.09
2019-03-24T08:22:13.576Z,42.16
2019-03-24T08:24:44.389Z,40.83
2019-03-24T08:27:15.202Z,38.94
2019-03-24T08:29:45.935Z,39.25
2019-03-24T08:32:16.713Z,37.79
2019-03-24T08:34:48.480Z,36.70
2019-03-24T08:37:19.337Z,36.23
2019-03-24T08:39:50.067Z,37.19
2019-03-24T08:42:20.820Z,35.61
2019-03-24T08:44:52.006Z,33.53
2019-03-24T08:47:22.874Z,32.09
2019-03-24T08:49:53.583Z,32.79
2019-03-24T08:52:24.309Z,31.68
2019-03-24T08:54:55.094Z,31.43
2019-03-24T08:57:25.860Z,30.29
2019-03-24T08:59:56.632Z,30.26
2019-03-24T09:02:27.627Z,30.82
2019-03-24T09:04:58.371Z,29.26
2019-03-24T09:07:29.531Z,29.06
2019-03-24T09:10:00.379Z,31.19
2019-03-24T09:12:31.328Z,32.49
2019-03-24T09:15:02.100Z,32.96
2019-03-24T09:17:32.879Z,31.83
2019-03-24T09:20:03.746Z,30.87
2019-03-24T09:22:34.554Z,30.88
2019-03-24T09:25:05.600Z,31.48
2019-03-24T09:27:36.351Z,29.97
2019-03-24T09:30:11.597Z,29.09
2019-03-24T09:32:42.378Z,30.65
2019-03-24T09:35:13.395Z,29.75
2019-03-24T09:37:44.120Z,29.71
2019-03-24T09:40:19.824Z,29.55
2019-03-24T09:42:50.597Z,29.21
2019-03-24T09:45:21.294Z,29.65
2019-03-24T09:47:52.506Z,30.02
2019-03-24T09:50:23.371Z,28.16
2019-03-24T09:52:54.301Z,28.54
2019-03-24T09:55:25.495Z,27.51
2019-03-24T09:57:56.356Z,26.39
2019-03-24T10:00:27.671Z,27.75
2019-03-24T10:02:58.653Z,28.53
2019-03-24T10:05:29.418Z,28.04
2019-03-24T10:08:00.983Z,30.00
2019-03-24T10:10:31.768Z,28.70
2019-03-24T10:13:02.912Z,31.03
2019-03-24T10:15:33.688Z,31.58
2019-03-24T10:18:04.785Z,29.42
2019-03-24T10:20:35.587Z,28.84
2019-03-24T10:23:06.382Z,27.62
2019-03-24T10:25:37.173Z,27.11
2019-03-24T10:28:08.327Z,25.55
2019-03-24T10:30:39.484Z,25.09
2019-03-24T10:33:10.292Z,23.48
2019-03-24T10:35:41.164Z,25.71
2019-03-24T10:38:12.174Z,24.03
2019-03-24T10:40:42.989Z,25.84
2019-03-24T10:43:14.511Z,25.36
2019-03-24T10:45:45.250Z,25.63
2019-03-24T10:48:16.592Z,27.89
2019-03-24T10:50:47.372Z,29.17
2019-03-24T10:53:18.229Z,34.88
2019-03-24T10:55:49.066Z,34.32
2019-03-24T10:58:20.527Z,32.72
2019-03-24T11:00:51.340Z,30.69
2019-03-24T11:03:22.084Z,30.21
2019-03-24T11:05:53.067Z,37.54
2019-03-24T11:08:23.838Z,40.07
2019-03-24T11:10:54.913Z,39.01
2019-03-24T11:13:25.675Z,42.52
2019-03-24T11:15:56.416Z,43.08
2019-03-24T11:18:27.194Z,38.89
2019-03-24T11:20:58.012Z,35.98
2019-03-24T11:23:28.789Z,37.44
2019-03-24T11:25:59.659Z,43.89
2019-03-24T11:28:30.708Z,46.25
2019-03-24T11:31:01.617Z,46.92
2019-03-24T11:33:32.383Z,48.65
2019-03-24T11:36:03.156Z,51.61
2019-03-24T11:38:33.997Z,46.80
2019-03-24T11:41:05.149Z,45.32
2019-03-24T11:43:35.978Z,44.38
2019-03-24T11:46:06.890Z,39.60
2019-03-24T11:48:37.767Z,39.18
2019-03-24T11:51:08.578Z,39.74
2019-03-24T11:53:39.550Z,37.73
2019-03-24T11:56:10.360Z,36.08
2019-03-24T11:58:41.461Z,38.18
2019-03-24T12:01:12.531Z,43.86
2019-03-24T12:03:43.638Z,38.16
2019-03-24T12:06:15.131Z,39.66
2019-03-24T12:08:45.924Z,40.26
2019-03-24T12:11:16.631Z,42.38
2019-03-24T12:13:47.368Z,41.67
2019-03-24T12:16:18.126Z,43.70
2019-03-24T12:18:48.864Z,39.83
2019-03-24T12:21:19.690Z,37.20
2019-03-24T12:23:51.139Z,36.56
2019-03-24T12:26:21.906Z,36.53
2019-03-24T12:28:52.645Z,35.62
2019-03-24T12:31:23.381Z,38.35
2019-03-24T12:33:54.609Z,37.50
2019-03-24T12:36:25.545Z,33.51
2019-03-24T12:38:56.531Z,30.70
2019-03-24T12:41:27.498Z,31.27
2019-03-24T12:43:58.632Z,31.20
2019-03-24T12:46:30.184Z,29.45
2019-03-24T12:49:00.990Z,35.93
2019-03-24T12:51:31.792Z,32.17
2019-03-24T12:54:02.528Z,32.02
2019-03-24T12:56:33.332Z,38.77
2019-03-24T12:59:04.400Z,43.43
2019-03-24T13:01:35.197Z,48.96
2019-03-24T13:04:06.127Z,49.67
2019-03-24T13:06:36.924Z,49.26
2019-03-24T13:09:09.030Z,51.65
2019-03-24T13:11:39.924Z,49.98
2019-03-24T13:14:10.720Z,50.03
2019-03-24T13:16:41.501Z,51.97
2019-03-24T13:19:12.235Z,52.68
2019-03-24T13:21:43.004Z,52.38
2019-03-24T13:24:13.817Z,52.02
2019-03-24T13:26:44.560Z,49.14
2019-03-24T13:29:15.981Z,45.66
2019-03-24T13:31:48.279Z,40.43
2019-03-24T13:34:19.223Z,39.75
2019-03-24T13:36:49.996Z,41.14
2019-03-24T13:39:20.828Z,42.97
2019-03-24T13:41:51.648Z,41.01
2019-03-24T13:44:22.383Z,42.33
2019-03-24T13:46:53.164Z,44.93
2019-03-24T13:49:23.980Z,41.57
2019-03-24T13:51:55.003Z,38.43
2019-03-24T13:54:25.722Z,40.68
2019-03-24T13:56:56.507Z,42.94
2019-03-24T13:59:28.091Z,42.76
2019-03-24T14:01:58.922Z,44.18
2019-03-24T14:04:29.657Z,39.72
2019-03-24T14:07:00.367Z,37.28
2019-03-24T14:09:31.936Z,38.80
2019-03-24T14:12:02.849Z,38.33
2019-03-24T14:14:33.601Z,43.07
2019-03-24T14:17:04.345Z,43.97
2019-03-24T14:19:35.326Z,45.43
2019-03-24T14:22:06.214Z,44.89
2019-03-24T14:24:36.964Z,43.36
2019-03-24T14:27:07.744Z,44.00
2019-03-24T14:29:38.555Z,48.16
2019-03-24T14:32:09.357Z,46.82
2019-03-24T14:34:40.088Z,48.97
2019-03-24T14:37:11.855Z,51.68
2019-03-24T14:39:42.720Z,51.98
2019-03-24T14:42:13.540Z,52.13
2019-03-24T14:44:44.540Z,52.80
2019-03-24T14:47:15.283Z,53.70
2019-03-24T14:49:46.012Z,51.92
2019-03-24T14:52:16.722Z,52.73
2019-03-24T14:54:47.457Z,52.96
2019-03-24T14:57:18.225Z,53.32
2019-03-24T14:59:48.998Z,53.31
2019-03-24T15:02:19.776Z,53.65
2019-03-24T15:04:51.237Z,53.31
2019-03-24T15:07:21.979Z,52.58
2019-03-24T15:09:52.725Z,53.09
2019-03-24T15:12:23.726Z,53.81
2019-03-24T15:14:54.534Z,54.51
2019-03-24T15:17:25.373Z,54.98
2019-03-24T15:19:56.107Z,54.72
2019-03-24T15:22:26.905Z,55.21
2019-03-24T15:24:57.943Z,55.47
2019-03-24T15:27:28.667Z,54.66
2019-03-24T15:29:59.413Z,55.90
2019-03-24T15:32:30.149Z,57.05
2019-03-24T15:35:00.947Z,56.96
2019-03-24T15:37:31.718Z,58.23
2019-03-24T15:40:02.717Z,57.95
2019-03-24T15:42:33.546Z,57.85
2019-03-24T15:45:04.382Z,58.63
2019-03-24T15:47:35.244Z,58.54
2019-03-24T15:50:06.880Z,59.76
2019-03-24T15:52:37.783Z,59.05
2019-03-24T15:55:09.070Z,59.40
2019-03-24T15:57:39.776Z,58.13
2019-03-24T16:00:11.746Z,57.60
2019-03-24T16:02:42.544Z,57.09
2019-03-24T16:05:13.461Z,57.64
2019-03-24T16:07:44.239Z,58.37
2019-03-24T16:10:15.549Z,59.49
2019-03-24T16:12:46.328Z,59.46
2019-03-24T16:15:17.220Z,60.41
2019-03-24T16:17:47.963Z,59.47
2019-03-24T16:20:18.711Z,60.30
2019-03-24T16:22:49.483Z,60.97
2019-03-24T16:25:20.203Z,61.36
2019-03-24T16:27:51.085Z,61.71
2019-03-24T16:30:21.846Z,61.67
2019-03-24T16:32:52.578Z,61.72
2019-03-24T16:35:23.387Z,61.58
2019-03-24T16:37:54.183Z,61.54
2019-03-24T16:40:25.015Z,61.89
2019-03-24T16:42:55.783Z,62.25
2019-03-24T16:45:26.499Z,62.87
2019-03-24T16:47:57.409Z,63.88
2019-03-24T16:50:28.475Z,64.58
2019-03-24T16:52:59.216Z,64.85
2019-03-24T16:55:29.932Z,65.06
2019-03-24T16:58:00.831Z,66.16
2019-03-24T17:00:31.636Z,66.15
2019-03-24T17:03:02.370Z,66.91
2019-03-24T17:05:34.005Z,67.59
2019-03-24T17:08:05.251Z,68.03
2019-03-24T17:10:36.012Z,68.61
2019-03-24T17:13:07.027Z,69.52
2019-03-24T17:15:37.813Z,69.41
2019-03-24T17:18:08.725Z,69.26
2019-03-24T17:20:39.637Z,69.32
2019-03-24T17:23:10.456Z,69.67
2019-03-24T17:25:41.279Z,70.09
2019-03-24T17:28:12.319Z,70.75
2019-03-24T17:30:43.125Z,71.39
2019-03-24T17:33:13.889Z,72.21
2019-03-24T17:35:44.640Z,72.04
2019-03-24T17:38:15.357Z,72.23
2019-03-24T17:40:46.506Z,72.75
2019-03-24T17:43:17.305Z,73.94
2019-03-24T17:45:49.066Z,74.65
2019-03-24T17:48:19.852Z,75.07
2019-03-24T17:50:50.562Z,75.71
2019-03-24T17:53:21.550Z,75.62
2019-03-24T17:55:52.341Z,76.35
2019-03-24T17:58:23.148Z,76.48
2019-03-24T18:00:55.940Z,77.07
2019-03-24T18:03:26.754Z,77.51
2019-03-24T18:05:59.562Z,78.08
2019-03-24T18:08:30.105Z,78.77
2019-03-24T18:11:00.891Z,79.17
2019-03-24T18:13:31.731Z,80.05
2019-03-24T18:16:02.632Z,80.59
2019-03-24T18:18:33.432Z,81.03
2019-03-24T18:21:04.558Z,80.85
2019-03-24T18:23:35.335Z,81.50
2019-03-24T18:26:06.372Z,81.37
2019-03-24T18:28:37.113Z,82.28
2019-03-24T18:31:08.247Z,82.73
2019-03-24T18:33:39.065Z,83.26
2019-03-24T18:36:09.843Z,84.06
2019-03-24T18:38:40.584Z,84.69
2019-03-24T18:41:11.456Z,85.16
2019-03-24T18:43:42.272Z,85.95
2019-03-24T18:46:13.088Z,85.45
2019-03-24T18:48:43.814Z,84.58
2019-03-24T18:51:14.549Z,83.92
2019-03-24T18:53:45.306Z,84.06
2019-03-24T18:56:16.083Z,85.03
2019-03-24T18:58:46.849Z,84.38
2019-03-24T19:01:17.582Z,84.10
2019-03-24T19:03:48.616Z,83.31
2019-03-24T19:06:19.446Z,81.83
2019-03-24T19:08:50.308Z,81.02
2019-03-24T19:11:21.314Z,80.94
2019-03-24T19:13:52.030Z,80.55
2019-03-24T19:16:23.096Z,79.59
2019-03-24T19:18:53.846Z,78.95
2019-03-24T19:21:24.875Z,79.10
2019-03-24T19:23:55.981Z,80.14
2019-03-24T19:26:26.833Z,80.01
2019-03-24T19:28:57.614Z,80.41
2019-03-24T19:31:28.816Z,80.51
2019-03-24T19:33:59.627Z,80.68
2019-03-24T19:36:30.586Z,80.64
2019-03-24T19:39:01.537Z,81.38
2019-03-24T19:41:32.419Z,81.83
2019-03-24T19:44:03.175Z,82.08
2019-03-24T19:46:34.243Z,82.00
2019-03-24T19:49:05.190Z,83.30
2019-03-24T19:51:36.019Z,83.50
2019-03-24T19:54:07.090Z,83.24
2019-03-24T19:56:38.075Z,82.66
2019-03-24T19:59:08.830Z,83.99
2019-03-24T20:01:39.757Z,84.44
2019-03-24T20:04:11.142Z,84.17
2019-03-24T20:06:41.883Z,83.42
2019-03-24T20:09:14.729Z,83.57
2019-03-24T20:11:45.613Z,84.78
2019-03-24T20:14:16.670Z,84.32
2019-03-24T20:16:47.486Z,83.23
2019-03-24T20:19:18.316Z,83.54
2019-03-24T20:21:49.031Z,83.80
2019-03-24T20:24:19.778Z,84.05
2019-03-24T20:26:50.516Z,83.71
2019-03-24T20:29:21.336Z,83.26
2019-03-24T20:31:52.191Z,83.70
2019-03-24T20:34:23.318Z,83.14
2019-03-24T20:36:54.085Z,82.41
2019-03-24T20:39:25.196Z,80.96
2019-03-24T20:41:55.990Z,80.65
2019-03-24T20:44:27.017Z,80.82
2019-03-24T20:46:57.841Z,80.87
2019-03-24T20:49:28.718Z,81.19
2019-03-24T20:51:59.455Z,81.56
2019-03-24T20:54:30.377Z,80.94
2019-03-24T20:57:01.125Z,81.32
2019-03-24T20:59:31.901Z,80.80
2019-03-24T21:02:02.662Z,80.34
2019-03-24T21:04:33.429Z,80.53
2019-03-24T21:07:04.549Z,80.31
2019-03-24T21:09:36.031Z,80.23
2019-03-24T21:12:07.092Z,82.05
2019-03-24T21:14:37.856Z,82.71
2019-03-24T21:17:08.644Z,83.20
2019-03-24T21:19:39.488Z,83.74
2019-03-24T21:22:10.713Z,84.03
2019-03-24T21:24:41.447Z,83.57
2019-03-24T21:27:12.170Z,83.40
2019-03-24T21:29:43.262Z,82.41
2019-03-24T21:32:14.009Z,82.23
2019-03-24T21:34:44.757Z,82.00
2019-03-24T21:37:15.527Z,81.99
2019-03-24T21:39:46.297Z,81.34
2019-03-24T21:42:17.135Z,80.16
2019-03-24T21:44:47.895Z,78.67
2019-03-24T21:47:18.789Z,78.36
2019-03-24T21:49:50.317Z,78.07
2019-03-24T21:52:21.029Z,77.42
2019-03-24T21:54:51.792Z,77.35
2019-03-24T21:57:22.530Z,77.74
2019-03-24T21:59:53.279Z,77.92
2019-03-24T22:02:24.894Z,77.82
2019-03-24T22:04:56.059Z,77.93
2019-03-24T22:07:26.907Z,77.76
2019-03-24T22:09:57.837Z,78.07
2019-03-24T22:12:28.609Z,78.61
2019-03-24T22:14:59.451Z,77.97
2019-03-24T22:17:30.441Z,77.84
2019-03-24T22:20:01.219Z,77.51
2019-03-24T22:22:32.157Z,77.30
2019-03-24T22:25:02.942Z,77.01
2019-03-24T22:27:33.778Z,76.96
2019-03-24T22:30:04.867Z,77.10
2019-03-24T22:32:35.687Z,77.23
2019-03-24T22:35:06.672Z,77.46
2019-03-24T22:37:37.402Z,77.92
2019-03-24T22:40:09.439Z,78.28
2019-03-24T22:42:40.162Z,78.62
2019-03-24T22:45:11.217Z,78.33
2019-03-24T22:47:42.002Z,78.55
2019-03-24T22:50:14.686Z,78.94
2019-03-24T22:52:45.499Z,79.18
2019-03-24T22:55:16.975Z,79.69
2019-03-24T22:57:47.751Z,79.96
2019-03-24T23:00:23.352Z,80.21
2019-03-24T23:02:54.506Z,80.25
2019-03-24T23:05:25.541Z,80.65
2019-03-24T23:07:56.277Z,80.86
2019-03-24T23:10:27.681Z,81.27
2019-03-24T23:12:58.491Z,81.55
2019-03-24T23:15:29.457Z,81.82
2019-03-24T23:18:00.178Z,81.90
2019-03-24T23:20:31.102Z,81.80
2019-03-24T23:23:01.919Z,82.09
2019-03-24T23:25:32.686Z,82.39
2019-03-24T23:28:03.414Z,82.51
2019-03-24T23:30:34.166Z,82.50
2019-03-24T23:33:05.047Z,82.94
2019-03-24T23:35:35.947Z,82.70
2019-03-24T23:38:06.921Z,83.01
2019-03-24T23:40:37.669Z,82.68
2019-03-24T23:43:08.750Z,82.71
2019-03-24T23:45:39.565Z,82.92
2019-03-24T23:48:10.329Z,83.01
2019-03-24T23:50:41.095Z,82.21
2019-03-24T23:53:11.800Z,81.42
2019-03-24T23:55:42.635Z,81.14
2019-03-24T23:58:13.357Z,80.63
